createdAt,value
2022-11-02T00:00:00.365Z,0.0
2022-11-02T00:05:00.325Z,0.0
2022-11-02T00:10:00.314Z,0.0
2022-11-02T00:15:00.284Z,0.0
2022-11-02T00:20:00.318Z,0.0
2022-11-02T00:25:00.360Z,0.0
2022-11-02T00:30:00.357Z,0.0
2022-11-02T00:35:00.307Z,0.0
2022-11-02T00:40:00.326Z,0.0
2022-11-02T00:45:00.293Z,0.0
2022-11-02T00:50:00.312Z,0.0
2022-11-02T00:55:00.301Z,0.0
2022-11-02T01:00:00.342Z,0.0
2022-11-02T01:05:00.299Z,0.0
2022-11-02T01:10:00.311Z,2.2
2022-11-02T01:15:00.348Z,0.0
2022-11-02T01:20:00.317Z,3.2
2022-11-02T01:25:00.287Z,0.0
2022-11-02T01:30:00.388Z,2.5
2022-11-02T01:35:00.298Z,2.2
2022-11-02T01:40:00.452Z,0.0
2022-11-02T01:45:00.296Z,0.0
2022-11-02T01:50:00.336Z,1.4
2022-11-02T01:55:00.313Z,2.2
2022-11-02T02:00:00.330Z,2.2
2022-11-02T02:05:00.280Z,0.0
2022-11-02T02:10:00.328Z,0.0
2022-11-02T02:15:00.321Z,0.0
2022-11-02T02:20:00.327Z,0.0
2022-11-02T02:25:00.342Z,2.9
2022-11-02T02:30:00.322Z,3.2
2022-11-02T02:35:00.267Z,0.0
2022-11-02T02:40:00.333Z,0.0
2022-11-02T02:45:00.481Z,0.0
2022-11-02T02:50:00.285Z,2.2
2022-11-02T02:55:00.267Z,5.8
2022-11-02T03:00:00.361Z,6.5
2022-11-02T03:05:00.380Z,3.6
2022-11-02T03:10:00.327Z,2.2
2022-11-02T03:15:00.332Z,6.1
2022-11-02T03:20:00.522Z,4.0
2022-11-02T03:25:00.364Z,4.3
2022-11-02T03:30:00.419Z,5.4
2022-11-02T03:35:00.303Z,5.4
2022-11-02T03:40:00.307Z,8.6
2022-11-02T03:45:00.280Z,5.8
2022-11-02T03:50:00.313Z,4.0
2022-11-02T03:55:00.284Z,4.0
2022-11-02T04:00:00.296Z,3.6
2022-11-02T04:05:00.315Z,2.9
2022-11-02T04:10:00.320Z,2.2
2022-11-02T04:15:00.314Z,1.8
2022-11-02T04:20:00.338Z,1.4
2022-11-02T04:25:00.333Z,3.2
2022-11-02T04:30:00.313Z,5.8
2022-11-02T04:35:00.271Z,1.8
2022-11-02T04:40:00.308Z,0.0
2022-11-02T04:45:00.326Z,0.0
2022-11-02T04:50:00.296Z,3.2
2022-11-02T04:55:00.291Z,0.0
2022-11-02T05:00:00.340Z,0.0
2022-11-02T05:05:00.311Z,4.0
2022-11-02T05:10:00.356Z,4.0
2022-11-02T05:15:00.314Z,0.0
2022-11-02T05:20:00.327Z,3.6
2022-11-02T05:25:00.288Z,3.2
2022-11-02T05:30:00.356Z,3.2
2022-11-02T05:35:00.305Z,0.0
2022-11-02T05:40:00.334Z,4.3
2022-11-02T05:45:00.289Z,8.3
2022-11-02T05:50:00.368Z,4.0
2022-11-02T05:55:00.302Z,0.0
2022-11-02T06:00:00.371Z,4.0
2022-11-02T06:05:00.570Z,1.4
2022-11-02T06:10:00.327Z,0.0
2022-11-02T06:15:00.309Z,0.0
2022-11-02T06:20:00.346Z,3.6
2022-11-02T06:25:00.406Z,2.9
2022-11-02T06:30:00.325Z,4.0
2022-11-02T06:35:00.296Z,4.0
2022-11-02T06:40:00.375Z,0.0
2022-11-02T06:45:00.290Z,4.7
2022-11-02T06:50:00.365Z,1.4
2022-11-02T06:55:00.270Z,2.2
2022-11-02T07:00:00.555Z,2.2
2022-11-02T07:05:00.299Z,5.4
2022-11-02T07:10:00.329Z,0.0
2022-11-02T07:15:00.273Z,5.0
2022-11-02T07:20:00.318Z,4.0
2022-11-02T07:25:00.279Z,5.0
2022-11-02T07:30:00.380Z,2.5
2022-11-02T07:35:00.295Z,8.3
2022-11-02T07:40:00.343Z,7.9
2022-11-02T07:45:00.313Z,11.5
2022-11-02T07:50:00.363Z,8.3
2022-11-02T07:55:00.302Z,8.3
2022-11-02T08:00:00.377Z,14.4
2022-11-02T08:05:00.304Z,12.2
2022-11-02T08:10:00.321Z,5.8
2022-11-02T08:15:07.990Z,17.6
2022-11-02T08:20:00.346Z,6.1
2022-11-02T08:25:00.780Z,6.8
2022-11-02T08:30:00.335Z,8.6
2022-11-02T08:35:00.304Z,6.5
2022-11-02T08:40:00.357Z,14.8
2022-11-02T08:45:00.283Z,5.4
2022-11-02T08:50:00.461Z,7.6
2022-11-02T08:55:00.296Z,9.4
2022-11-02T09:00:00.381Z,9.4
2022-11-02T09:05:00.271Z,16.2
2022-11-02T09:10:00.367Z,11.2
2022-11-02T09:15:00.414Z,18.4
2022-11-02T09:20:00.343Z,13.0
2022-11-02T09:25:00.282Z,16.9
2022-11-02T09:30:00.382Z,18.0
2022-11-02T09:35:00.287Z,18.4
2022-11-02T09:40:00.303Z,14.0
2022-11-02T09:45:00.322Z,21.6
2022-11-02T09:50:00.352Z,24.5
2022-11-02T09:55:00.330Z,27.7
2022-11-02T10:00:00.414Z,19.4
2022-11-02T10:05:00.331Z,22.0
2022-11-02T10:10:00.334Z,7.9
2022-11-02T10:15:00.292Z,18.0
2022-11-02T10:20:00.614Z,18.4
2022-11-02T10:25:00.264Z,27.0
2022-11-02T10:30:00.460Z,23.4
2022-11-02T10:40:00.365Z,30.2
2022-11-02T10:45:00.286Z,32.0
2022-11-02T10:50:00.333Z,29.5
2022-11-02T10:55:00.268Z,18.7
2022-11-02T11:00:00.346Z,28.8
2022-11-02T11:05:00.362Z,22.7
2022-11-02T11:10:00.320Z,22.0
2022-11-02T11:15:47.616Z,31.7
2022-11-02T11:20:07.715Z,22.7
2022-11-02T11:25:00.285Z,16.2
2022-11-02T11:30:00.345Z,15.5
2022-11-02T11:35:00.300Z,18.4
2022-11-02T11:40:00.396Z,24.5
2022-11-02T11:45:00.308Z,13.3
2022-11-02T11:50:23.061Z,20.9
2022-11-02T11:55:00.382Z,27.0
2022-11-02T12:00:00.389Z,25.9
2022-11-02T12:05:00.385Z,19.4
2022-11-02T12:10:00.307Z,16.9
2022-11-02T12:15:07.386Z,17.6
2022-11-02T12:20:00.418Z,20.9
2022-11-02T12:25:00.290Z,30.6
2022-11-02T12:30:00.345Z,24.1
2022-11-02T12:35:28.697Z,22.7
2022-11-02T12:40:00.311Z,27.4
2022-11-02T12:45:00.307Z,25.6
2022-11-02T12:50:00.312Z,24.8
2022-11-02T12:55:00.288Z,15.1
2022-11-02T13:00:00.451Z,21.2
2022-11-02T13:05:00.320Z,18.0
2022-11-02T13:10:00.337Z,23.0
2022-11-02T13:15:00.356Z,18.7
2022-11-02T13:20:00.336Z,16.6
2022-11-02T13:25:00.351Z,16.9
2022-11-02T13:30:00.363Z,18.0
2022-11-02T13:35:00.310Z,15.8
2022-11-02T13:40:00.330Z,16.6
2022-11-02T13:45:00.355Z,27.4
2022-11-02T13:50:00.316Z,12.2
2022-11-02T13:55:00.460Z,20.5
2022-11-02T14:00:00.316Z,15.8
2022-11-02T14:05:00.307Z,34.9
2022-11-02T14:10:00.345Z,22.3
2022-11-02T14:15:00.286Z,18.7
2022-11-02T14:20:00.651Z,15.1
2022-11-02T14:25:00.286Z,16.2
2022-11-02T14:30:00.404Z,23.8
2022-11-02T14:35:00.294Z,14.4
2022-11-02T14:40:00.332Z,11.5
2022-11-02T14:45:00.365Z,13.7
2022-11-02T14:50:00.326Z,14.4
2022-11-02T14:55:00.344Z,32.4
2022-11-02T15:00:00.332Z,16.2
2022-11-02T15:05:00.308Z,19.8
2022-11-02T15:10:00.443Z,26.6
2022-11-02T15:15:00.278Z,13.0
2022-11-02T15:20:00.310Z,19.8
2022-11-02T15:25:00.289Z,21.6
2022-11-02T15:30:00.390Z,12.2
2022-11-02T15:35:00.290Z,16.9
2022-11-02T15:40:00.314Z,11.9
2022-11-02T15:45:33.836Z,12.2
2022-11-02T15:50:00.327Z,10.4
2022-11-02T15:55:00.302Z,6.5
2022-11-02T16:00:00.314Z,11.9
2022-11-02T16:05:00.452Z,15.5
2022-11-02T16:10:00.319Z,8.6
2022-11-02T16:15:00.322Z,9.4
2022-11-02T16:20:00.349Z,8.6
2022-11-02T16:25:00.282Z,7.6
2022-11-02T16:30:00.360Z,6.1
2022-11-02T16:35:00.308Z,9.4
2022-11-02T16:40:00.356Z,5.8
2022-11-02T16:45:00.392Z,6.8
2022-11-02T16:50:00.389Z,15.1
2022-11-02T16:55:00.303Z,12.2
2022-11-02T17:00:00.400Z,9.0
2022-11-02T17:05:07.276Z,13.7
2022-11-02T17:10:00.344Z,5.8
2022-11-02T17:15:00.316Z,7.2
2022-11-02T17:20:00.448Z,10.1
2022-11-02T17:25:03.034Z,8.6
2022-11-02T17:30:00.393Z,7.9
2022-11-02T17:35:00.299Z,4.7
2022-11-02T17:40:00.325Z,3.6
2022-11-02T17:45:00.639Z,11.5
2022-11-02T17:50:00.327Z,5.8
2022-11-02T17:55:00.333Z,5.0
2022-11-02T18:00:00.722Z,4.7
2022-11-02T18:05:00.365Z,3.2
2022-11-02T18:10:00.760Z,2.9
2022-11-02T18:15:00.378Z,3.6
2022-11-02T18:20:00.681Z,3.6
2022-11-02T18:25:00.386Z,2.2
2022-11-02T18:30:00.718Z,3.2
2022-11-02T18:35:00.361Z,1.4
2022-11-02T18:40:00.396Z,5.4
2022-11-02T18:45:00.394Z,0.0
2022-11-02T18:50:00.420Z,2.2
2022-11-02T18:55:00.930Z,3.6
2022-11-02T19:00:00.393Z,4.0
2022-11-02T19:05:00.323Z,2.9
2022-11-02T19:10:04.486Z,4.0
2022-11-02T19:15:00.469Z,1.8
2022-11-02T19:20:00.376Z,2.5
2022-11-02T19:25:00.606Z,0.0
2022-11-02T19:30:00.467Z,2.2
2022-11-02T19:35:00.349Z,0.0
2022-11-02T19:40:00.326Z,4.3
2022-11-02T19:45:00.317Z,2.2
2022-11-02T19:50:00.361Z,0.0
2022-11-02T19:55:00.301Z,0.0
2022-11-02T20:00:00.319Z,0.0
2022-11-02T20:05:00.308Z,0.0
2022-11-02T20:10:00.349Z,0.0
2022-11-02T20:15:00.280Z,0.0
2022-11-02T20:20:00.490Z,0.0
2022-11-02T20:25:00.308Z,0.0
2022-11-02T20:30:00.323Z,0.0
2022-11-02T20:35:00.265Z,1.4
2022-11-02T20:40:00.307Z,1.8
2022-11-02T20:45:00.298Z,0.0
2022-11-02T20:50:00.335Z,1.8
2022-11-02T20:55:00.287Z,2.2
2022-11-02T21:00:00.342Z,0.0
2022-11-02T21:05:00.297Z,0.0
2022-11-02T21:10:00.523Z,0.0
2022-11-02T21:15:00.309Z,0.0
2022-11-02T21:20:33.471Z,3.2
2022-11-02T21:25:00.308Z,0.0
2022-11-02T21:30:00.307Z,0.0
2022-11-02T21:35:00.379Z,3.6
2022-11-02T21:40:00.327Z,4.0
2022-11-02T21:45:00.286Z,0.0
2022-11-02T21:50:00.361Z,0.0
2022-11-02T21:55:00.313Z,0.0
2022-11-02T22:00:00.341Z,0.0
2022-11-02T22:05:00.286Z,2.5
2022-11-02T22:10:00.326Z,3.2
2022-11-02T22:15:00.345Z,0.0
2022-11-02T22:20:00.339Z,0.0
2022-11-02T22:25:00.297Z,0.0
2022-11-02T22:30:00.366Z,0.0
2022-11-02T22:35:00.347Z,2.2
2022-11-02T22:40:00.299Z,0.0
2022-11-02T22:45:00.338Z,0.0
2022-11-02T22:50:00.334Z,0.0
2022-11-02T22:55:00.498Z,2.2
2022-11-02T23:00:00.363Z,2.2
2022-11-02T23:05:00.266Z,1.4
2022-11-02T23:10:00.328Z,0.0
2022-11-02T23:15:00.313Z,2.2
2022-11-02T23:20:00.324Z,0.0
2022-11-02T23:25:00.374Z,0.0
2022-11-02T23:30:00.342Z,0.0
2022-11-02T23:35:00.282Z,0.0
2022-11-02T23:40:00.302Z,0.0
2022-11-02T23:45:00.524Z,0.0
2022-11-02T23:50:00.302Z,0.0
2022-11-02T23:55:00.289Z,0.0
